sensor_id;sensor_type;location;lat;lon;timestamp;temperature;humidity
306;DHT22;137;48.578;9.180;2023-12-04T00:01:44;-6.30;98.20
306;DHT22;137;48.578;9.180;2023-12-04T00:04:11;-6.30;98.20
306;DHT22;137;48.578;9.180;2023-12-04T00:06:38;-6.30;98.20
306;DHT22;137;48.578;9.180;2023-12-04T00:09:05;-6.30;98.20
306;DHT22;137;48.578;9.180;2023-12-04T00:11:32;-6.30;98.20
306;DHT22;137;48.578;9.180;2023-12-04T00:13:58;-6.20;98.20
306;DHT22;137;48.578;9.180;2023-12-04T00:16:25;-6.20;98.20
306;DHT22;137;48.578;9.180;2023-12-04T00:18:53;-6.30;98.20
306;DHT22;137;48.578;9.180;2023-12-04T00:21:20;-6.30;98.20
306;DHT22;137;48.578;9.180;2023-12-04T00:23:47;-6.30;98.20
306;DHT22;137;48.578;9.180;2023-12-04T00:26:15;-6.30;98.20
306;DHT22;137;48.578;9.180;2023-12-04T00:28:41;-6.30;98.20
306;DHT22;137;48.578;9.180;2023-12-04T00:31:08;-6.30;98.20
306;DHT22;137;48.578;9.180;2023-12-04T00:33:36;-6.30;98.20
306;DHT22;137;48.578;9.180;2023-12-04T00:36:05;-6.30;98.20
306;DHT22;137;48.578;9.180;2023-12-04T00:38:32;-6.30;98.20
306;DHT22;137;48.578;9.180;2023-12-04T00:40:58;-6.20;98.20
306;DHT22;137;48.578;9.180;2023-12-04T00:43:25;-6.20;98.20
306;DHT22;137;48.578;9.180;2023-12-04T00:45:52;-6.20;98.20
306;DHT22;137;48.578;9.180;2023-12-04T00:48:18;-6.20;98.20
306;DHT22;137;48.578;9.180;2023-12-04T00:50:45;-6.20;98.20
306;DHT22;137;48.578;9.180;2023-12-04T00:53:13;-6.20;98.20
306;DHT22;137;48.578;9.180;2023-12-04T00:55:40;-6.20;98.20
306;DHT22;137;48.578;9.180;2023-12-04T00:58:07;-6.20;98.20
306;DHT22;137;48.578;9.180;2023-12-04T01:00:33;-6.10;98.20
306;DHT22;137;48.578;9.180;2023-12-04T01:03:00;-6.20;98.20
306;DHT22;137;48.578;9.180;2023-12-04T01:05:27;-6.20;98.20
306;DHT22;137;48.578;9.180;2023-12-04T01:07:54;-6.20;98.20
306;DHT22;137;48.578;9.180;2023-12-04T01:10:22;-6.20;98.20
306;DHT22;137;48.578;9.180;2023-12-04T01:12:49;-6.20;98.20
306;DHT22;137;48.578;9.180;2023-12-04T01:15:16;-6.10;98.20
306;DHT22;137;48.578;9.180;2023-12-04T01:17:43;-6.00;98.20
306;DHT22;137;48.578;9.180;2023-12-04T01:20:10;-6.00;98.20
306;DHT22;137;48.578;9.180;2023-12-04T01:22:37;-5.90;98.20
306;DHT22;137;48.578;9.180;2023-12-04T01:25:04;-5.90;98.20
306;DHT22;137;48.578;9.180;2023-12-04T01:27:33;-6.00;98.20
306;DHT22;137;48.578;9.180;2023-12-04T01:30:00;-6.00;98.20
306;DHT22;137;48.578;9.180;2023-12-04T01:32:27;-5.90;98.20
306;DHT22;137;48.578;9.180;2023-12-04T01:34:54;-5.90;98.20
306;DHT22;137;48.578;9.180;2023-12-04T01:37:20;-6.00;98.20
306;DHT22;137;48.578;9.180;2023-12-04T01:39:47;-6.00;98.20
306;DHT22;137;48.578;9.180;2023-12-04T01:42:14;-6.10;98.20
306;DHT22;137;48.578;9.180;2023-12-04T01:44:42;-6.20;98.20
306;DHT22;137;48.578;9.180;2023-12-04T01:47:09;-6.20;98.20
306;DHT22;137;48.578;9.180;2023-12-04T01:49:36;-6.10;98.20
306;DHT22;137;48.578;9.180;2023-12-04T01:52:04;-6.10;98.20
306;DHT22;137;48.578;9.180;2023-12-04T01:54:31;-6.00;98.20
306;DHT22;137;48.578;9.180;2023-12-04T01:56:58;-6.00;98.20
306;DHT22;137;48.578;9.180;2023-12-04T01:59:25;-6.00;98.20
306;DHT22;137;48.578;9.180;2023-12-04T02:01:54;-5.90;98.20
306;DHT22;137;48.578;9.180;2023-12-04T02:04:21;-5.90;98.20
306;DHT22;137;48.578;9.180;2023-12-04T02:06:48;-5.90;98.20
306;DHT22;137;48.578;9.180;2023-12-04T02:09:15;-6.00;98.20
306;DHT22;137;48.578;9.180;2023-12-04T02:11:42;-6.10;98.20
306;DHT22;137;48.578;9.180;2023-12-04T02:14:08;-6.20;98.20
306;DHT22;137;48.578;9.180;2023-12-04T02:16:39;-6.30;98.20
306;DHT22;137;48.578;9.180;2023-12-04T02:19:10;-6.50;98.20
306;DHT22;137;48.578;9.180;2023-12-04T02:21:38;-6.60;98.20
306;DHT22;137;48.578;9.180;2023-12-04T02:24:06;-6.60;98.20
306;DHT22;137;48.578;9.180;2023-12-04T02:26:43;-6.70;98.20
306;DHT22;137;48.578;9.180;2023-12-04T02:29:14;-6.60;98.20
306;DHT22;137;48.578;9.180;2023-12-04T02:31:41;-6.60;98.20
306;DHT22;137;48.578;9.180;2023-12-04T02:34:11;-6.60;98.20
306;DHT22;137;48.578;9.180;2023-12-04T02:36:41;-6.60;98.20
306;DHT22;137;48.578;9.180;2023-12-04T02:39:09;-6.70;98.20
306;DHT22;137;48.578;9.180;2023-12-04T02:41:36;-6.70;98.20
306;DHT22;137;48.578;9.180;2023-12-04T02:44:03;-6.70;98.20
306;DHT22;137;48.578;9.180;2023-12-04T02:46:30;-6.70;98.20
306;DHT22;137;48.578;9.180;2023-12-04T02:48:57;-6.80;98.20
306;DHT22;137;48.578;9.180;2023-12-04T02:51:23;-6.90;98.20
306;DHT22;137;48.578;9.180;2023-12-04T02:53:51;-6.90;98.20
306;DHT22;137;48.578;9.180;2023-12-04T02:56:19;-7.00;98.20
306;DHT22;137;48.578;9.180;2023-12-04T02:58:46;-7.10;98.20
306;DHT22;137;48.578;9.180;2023-12-04T03:01:13;-7.10;98.20
306;DHT22;137;48.578;9.180;2023-12-04T03:03:40;-7.10;98.20
306;DHT22;137;48.578;9.180;2023-12-04T03:06:07;-7.00;98.20
306;DHT22;137;48.578;9.180;2023-12-04T03:08:33;-6.90;98.20
306;DHT22;137;48.578;9.180;2023-12-04T03:11:01;-6.80;98.20
306;DHT22;137;48.578;9.180;2023-12-04T03:13:30;-6.80;98.20
306;DHT22;137;48.578;9.180;2023-12-04T03:15:57;-6.80;98.20
306;DHT22;137;48.578;9.180;2023-12-04T03:18:23;-6.80;98.20
306;DHT22;137;48.578;9.180;2023-12-04T03:20:51;-6.70;98.20
306;DHT22;137;48.578;9.180;2023-12-04T03:23:18;-6.70;98.20
306;DHT22;137;48.578;9.180;2023-12-04T03:25:44;-6.70;98.20
306;DHT22;137;48.578;9.180;2023-12-04T03:28:11;-6.60;98.20
306;DHT22;137;48.578;9.180;2023-12-04T03:30:40;-6.50;98.20
306;DHT22;137;48.578;9.180;2023-12-04T03:33:08;-6.40;98.20
306;DHT22;137;48.578;9.180;2023-12-04T03:35:35;-6.30;98.20
306;DHT22;137;48.578;9.180;2023-12-04T03:38:02;-6.30;98.20
306;DHT22;137;48.578;9.180;2023-12-04T03:42:54;-6.10;98.20
306;DHT22;137;48.578;9.180;2023-12-04T03:45:21;-6.10;98.20
306;DHT22;137;48.578;9.180;2023-12-04T03:47:49;-6.10;98.20
306;DHT22;137;48.578;9.180;2023-12-04T03:50:16;-6.00;98.20
306;DHT22;137;48.578;9.180;2023-12-04T03:52:42;-6.00;98.20
306;DHT22;137;48.578;9.180;2023-12-04T03:55:09;-6.00;98.20
306;DHT22;137;48.578;9.180;2023-12-04T03:57:36;-6.00;98.20
306;DHT22;137;48.578;9.180;2023-12-04T04:00:04;-6.00;98.20
306;DHT22;137;48.578;9.180;2023-12-04T04:02:31;-6.00;98.20
306;DHT22;137;48.578;9.180;2023-12-04T04:04:59;-6.00;98.20
306;DHT22;137;48.578;9.180;2023-12-04T04:07:26;-6.10;98.20
306;DHT22;137;48.578;9.180;2023-12-04T04:09:52;-6.10;98.20
306;DHT22;137;48.578;9.180;2023-12-04T04:12:19;-6.10;98.20
306;DHT22;137;48.578;9.180;2023-12-04T04:14:46;-6.10;98.20
306;DHT22;137;48.578;9.180;2023-12-04T04:17:13;-6.00;98.20
306;DHT22;137;48.578;9.180;2023-12-04T04:19:40;-5.90;98.20
306;DHT22;137;48.578;9.180;2023-12-04T04:22:08;-5.80;98.20
306;DHT22;137;48.578;9.180;2023-12-04T04:24:35;-5.70;98.20
306;DHT22;137;48.578;9.180;2023-12-04T04:27:02;-5.60;98.20
306;DHT22;137;48.578;9.180;2023-12-04T04:29:29;-5.60;98.20
306;DHT22;137;48.578;9.180;2023-12-04T04:31:55;-5.50;98.20
306;DHT22;137;48.578;9.180;2023-12-04T04:34:22;-5.50;98.20
306;DHT22;137;48.578;9.180;2023-12-04T04:36:49;-5.40;98.20
306;DHT22;137;48.578;9.180;2023-12-04T04:39:17;-5.40;98.20
306;DHT22;137;48.578;9.180;2023-12-04T04:41:44;-5.50;98.20
306;DHT22;137;48.578;9.180;2023-12-04T04:44:11;-5.60;98.20
306;DHT22;137;48.578;9.180;2023-12-04T04:46:38;-5.70;98.20
306;DHT22;137;48.578;9.180;2023-12-04T04:49:04;-5.80;98.20
306;DHT22;137;48.578;9.180;2023-12-04T04:51:32;-5.80;98.20
306;DHT22;137;48.578;9.180;2023-12-04T04:53:59;-5.80;98.20
306;DHT22;137;48.578;9.180;2023-12-04T04:56:27;-5.80;98.20
306;DHT22;137;48.578;9.180;2023-12-04T04:58:54;-5.80;98.20
306;DHT22;137;48.578;9.180;2023-12-04T05:01:20;-5.90;98.20
306;DHT22;137;48.578;9.180;2023-12-04T05:03:47;-5.90;98.20
306;DHT22;137;48.578;9.180;2023-12-04T05:06:14;-5.90;98.20
306;DHT22;137;48.578;9.180;2023-12-04T05:08:41;-5.90;98.20
306;DHT22;137;48.578;9.180;2023-12-04T05:11:07;-5.90;98.20
306;DHT22;137;48.578;9.180;2023-12-04T05:13:35;-5.90;98.20
306;DHT22;137;48.578;9.180;2023-12-04T05:16:03;-5.90;98.20
306;DHT22;137;48.578;9.180;2023-12-04T05:18:30;-5.80;98.20
306;DHT22;137;48.578;9.180;2023-12-04T05:20:57;-5.80;98.20
306;DHT22;137;48.578;9.180;2023-12-04T05:23:24;-5.80;98.20
306;DHT22;137;48.578;9.180;2023-12-04T05:25:50;-5.80;98.20
306;DHT22;137;48.578;9.180;2023-12-04T05:28:17;-5.80;98.20
306;DHT22;137;48.578;9.180;2023-12-04T05:30:45;-5.80;98.20
306;DHT22;137;48.578;9.180;2023-12-04T05:33:12;-5.80;98.20
306;DHT22;137;48.578;9.180;2023-12-04T05:35:39;-5.80;98.20
306;DHT22;137;48.578;9.180;2023-12-04T05:38:05;-5.70;98.20
306;DHT22;137;48.578;9.180;2023-12-04T05:43:05;-5.80;98.20
306;DHT22;137;48.578;9.180;2023-12-04T05:45:33;-5.70;98.20
306;DHT22;137;48.578;9.180;2023-12-04T05:48:01;-5.70;98.20
306;DHT22;137;48.578;9.180;2023-12-04T05:50:27;-5.70;98.20
306;DHT22;137;48.578;9.180;2023-12-04T05:52:54;-5.70;98.20
306;DHT22;137;48.578;9.180;2023-12-04T05:55:21;-5.70;98.20
306;DHT22;137;48.578;9.180;2023-12-04T05:57:48;-5.70;98.20
306;DHT22;137;48.578;9.180;2023-12-04T06:00:15;-5.70;98.20
306;DHT22;137;48.578;9.180;2023-12-04T06:02:42;-5.70;98.20
306;DHT22;137;48.578;9.180;2023-12-04T06:05:11;-5.70;98.20
306;DHT22;137;48.578;9.180;2023-12-04T06:07:38;-5.70;98.20
306;DHT22;137;48.578;9.180;2023-12-04T06:10:07;-5.60;98.20
306;DHT22;137;48.578;9.180;2023-12-04T06:12:34;-5.60;98.20
306;DHT22;137;48.578;9.180;2023-12-04T06:15:01;-5.60;98.20
306;DHT22;137;48.578;9.180;2023-12-04T06:17:28;-5.60;98.20
306;DHT22;137;48.578;9.180;2023-12-04T06:19:55;-5.60;98.20
306;DHT22;137;48.578;9.180;2023-12-04T06:22:24;-5.60;98.20
306;DHT22;137;48.578;9.180;2023-12-04T06:24:51;-5.50;98.20
306;DHT22;137;48.578;9.180;2023-12-04T06:27:19;-5.50;98.20
306;DHT22;137;48.578;9.180;2023-12-04T06:29:46;-5.40;98.20
306;DHT22;137;48.578;9.180;2023-12-04T06:32:14;-5.40;98.20
306;DHT22;137;48.578;9.180;2023-12-04T06:34:42;-5.30;98.20
306;DHT22;137;48.578;9.180;2023-12-04T06:37:09;-5.30;98.20
306;DHT22;137;48.578;9.180;2023-12-04T06:39:39;-5.20;98.20
306;DHT22;137;48.578;9.180;2023-12-04T06:42:07;-5.20;98.20
306;DHT22;137;48.578;9.180;2023-12-04T06:44:35;-5.10;98.20
306;DHT22;137;48.578;9.180;2023-12-04T06:47:03;-5.10;98.20
306;DHT22;137;48.578;9.180;2023-12-04T06:49:31;-5.10;98.20
306;DHT22;137;48.578;9.180;2023-12-04T06:51:59;-5.10;98.20
306;DHT22;137;48.578;9.180;2023-12-04T06:54:26;-5.00;98.20
306;DHT22;137;48.578;9.180;2023-12-04T06:56:54;-5.00;98.20
306;DHT22;137;48.578;9.180;2023-12-04T06:59:21;-4.90;98.20
306;DHT22;137;48.578;9.180;2023-12-04T07:01:48;-4.90;98.20
306;DHT22;137;48.578;9.180;2023-12-04T07:04:15;-4.90;98.20
306;DHT22;137;48.578;9.180;2023-12-04T07:06:46;-4.90;98.20
306;DHT22;137;48.578;9.180;2023-12-04T07:09:13;-4.80;98.20
306;DHT22;137;48.578;9.180;2023-12-04T07:11:42;-4.70;98.20
306;DHT22;137;48.578;9.180;2023-12-04T07:14:10;-4.70;98.20
306;DHT22;137;48.578;9.180;2023-12-04T07:16:40;-4.90;98.20
306;DHT22;137;48.578;9.180;2023-12-04T07:19:08;-4.90;98.20
306;DHT22;137;48.578;9.180;2023-12-04T07:21:35;-4.90;98.20
306;DHT22;137;48.578;9.180;2023-12-04T07:24:01;-4.90;98.20
306;DHT22;137;48.578;9.180;2023-12-04T07:26:28;-4.80;98.20
306;DHT22;137;48.578;9.180;2023-12-04T07:28:55;-4.70;98.20
306;DHT22;137;48.578;9.180;2023-12-04T07:31:23;-4.60;98.20
306;DHT22;137;48.578;9.180;2023-12-04T07:33:51;-4.60;98.20
306;DHT22;137;48.578;9.180;2023-12-04T07:36:18;-4.50;98.20
306;DHT22;137;48.578;9.180;2023-12-04T07:38:45;-4.40;98.20
306;DHT22;137;48.578;9.180;2023-12-04T07:41:12;-4.40;98.20
306;DHT22;137;48.578;9.180;2023-12-04T07:43:39;-4.30;98.20
306;DHT22;137;48.578;9.180;2023-12-04T07:46:06;-4.30;98.20
306;DHT22;137;48.578;9.180;2023-12-04T07:48:34;-4.30;98.20
306;DHT22;137;48.578;9.180;2023-12-04T07:51:01;-4.20;98.20
306;DHT22;137;48.578;9.180;2023-12-04T07:53:28;-4.10;98.20
306;DHT22;137;48.578;9.180;2023-12-04T07:55:54;-4.00;98.20
306;DHT22;137;48.578;9.180;2023-12-04T07:58:21;-3.90;98.20
306;DHT22;137;48.578;9.180;2023-12-04T08:00:48;-3.90;98.20
306;DHT22;137;48.578;9.180;2023-12-04T08:03:15;-3.80;98.20
306;DHT22;137;48.578;9.180;2023-12-04T08:05:43;-3.70;98.20
306;DHT22;137;48.578;9.180;2023-12-04T08:08:10;-3.60;98.20
306;DHT22;137;48.578;9.180;2023-12-04T08:10:37;-3.50;98.20
306;DHT22;137;48.578;9.180;2023-12-04T08:13:03;-3.40;98.20
306;DHT22;137;48.578;9.180;2023-12-04T08:15:30;-3.20;98.20
306;DHT22;137;48.578;9.180;2023-12-04T08:17:57;-3.10;98.20
306;DHT22;137;48.578;9.180;2023-12-04T08:20:24;-3.10;98.20
306;DHT22;137;48.578;9.180;2023-12-04T08:22:52;-3.00;98.20
306;DHT22;137;48.578;9.180;2023-12-04T08:25:20;-3.00;98.20
306;DHT22;137;48.578;9.180;2023-12-04T08:27:47;-3.00;98.20
306;DHT22;137;48.578;9.180;2023-12-04T08:30:15;-3.00;98.20
306;DHT22;137;48.578;9.180;2023-12-04T08:32:42;-3.00;98.20
306;DHT22;137;48.578;9.180;2023-12-04T08:35:08;-2.90;98.20
306;DHT22;137;48.578;9.180;2023-12-04T08:37:35;-2.90;98.20
306;DHT22;137;48.578;9.180;2023-12-04T08:40:04;-2.90;98.20
306;DHT22;137;48.578;9.180;2023-12-04T08:42:32;-2.90;98.20
306;DHT22;137;48.578;9.180;2023-12-04T08:44:59;-2.80;98.20
306;DHT22;137;48.578;9.180;2023-12-04T08:47:26;-2.80;98.20
306;DHT22;137;48.578;9.180;2023-12-04T08:49:53;-2.70;98.20
306;DHT22;137;48.578;9.180;2023-12-04T08:52:19;-2.70;98.20
306;DHT22;137;48.578;9.180;2023-12-04T08:54:46;-2.70;98.20
306;DHT22;137;48.578;9.180;2023-12-04T08:57:14;-2.70;98.20
306;DHT22;137;48.578;9.180;2023-12-04T08:59:41;-2.60;98.20
306;DHT22;137;48.578;9.180;2023-12-04T09:02:08;-2.60;98.20
306;DHT22;137;48.578;9.180;2023-12-04T09:04:35;-2.60;98.20
306;DHT22;137;48.578;9.180;2023-12-04T09:07:02;-2.50;98.20
306;DHT22;137;48.578;9.180;2023-12-04T09:09:29;-2.60;98.20
306;DHT22;137;48.578;9.180;2023-12-04T09:11:57;-2.60;98.20
306;DHT22;137;48.578;9.180;2023-12-04T09:14:26;-2.50;98.20
306;DHT22;137;48.578;9.180;2023-12-04T09:16:53;-2.40;98.20
306;DHT22;137;48.578;9.180;2023-12-04T09:19:20;-2.30;98.20
306;DHT22;137;48.578;9.180;2023-12-04T09:21:46;-2.10;98.20
306;DHT22;137;48.578;9.180;2023-12-04T09:24:13;-2.00;98.20
306;DHT22;137;48.578;9.180;2023-12-04T09:26:40;-2.00;98.20
306;DHT22;137;48.578;9.180;2023-12-04T09:29:10;-1.90;98.20
306;DHT22;137;48.578;9.180;2023-12-04T09:31:39;-1.90;98.20
306;DHT22;137;48.578;9.180;2023-12-04T09:34:06;-1.80;98.20
306;DHT22;137;48.578;9.180;2023-12-04T09:36:33;-1.70;98.20
306;DHT22;137;48.578;9.180;2023-12-04T09:39:00;-1.60;98.20
306;DHT22;137;48.578;9.180;2023-12-04T09:41:29;-1.40;98.20
306;DHT22;137;48.578;9.180;2023-12-04T09:43:57;-1.20;98.20
306;DHT22;137;48.578;9.180;2023-12-04T09:46:24;-1.20;98.20
306;DHT22;137;48.578;9.180;2023-12-04T09:48:54;-1.10;98.20
306;DHT22;137;48.578;9.180;2023-12-04T09:51:22;-1.00;98.20
306;DHT22;137;48.578;9.180;2023-12-04T09:53:51;-0.90;98.20
306;DHT22;137;48.578;9.180;2023-12-04T09:56:20;-0.90;98.20
306;DHT22;137;48.578;9.180;2023-12-04T09:58:51;-0.80;98.20
306;DHT22;137;48.578;9.180;2023-12-04T10:01:19;-0.70;98.20
306;DHT22;137;48.578;9.180;2023-12-04T10:03:47;-0.60;98.20
306;DHT22;137;48.578;9.180;2023-12-04T10:06:16;-0.50;98.20
306;DHT22;137;48.578;9.180;2023-12-04T10:08:43;-0.60;98.20
306;DHT22;137;48.578;9.180;2023-12-04T10:11:12;-0.60;98.20
306;DHT22;137;48.578;9.180;2023-12-04T10:13:42;-0.60;98.20
306;DHT22;137;48.578;9.180;2023-12-04T10:16:09;-0.80;98.20
306;DHT22;137;48.578;9.180;2023-12-04T10:18:36;-0.90;98.20
306;DHT22;137;48.578;9.180;2023-12-04T10:21:03;-0.90;98.20
306;DHT22;137;48.578;9.180;2023-12-04T10:23:39;-0.80;98.20
306;DHT22;137;48.578;9.180;2023-12-04T10:26:06;-0.80;98.20
306;DHT22;137;48.578;9.180;2023-12-04T10:28:34;-0.70;98.20
306;DHT22;137;48.578;9.180;2023-12-04T10:31:01;-0.70;98.20
306;DHT22;137;48.578;9.180;2023-12-04T10:33:29;-0.60;98.20
306;DHT22;137;48.578;9.180;2023-12-04T10:35:56;-0.50;98.20
306;DHT22;137;48.578;9.180;2023-12-04T10:38:23;-0.30;98.20
306;DHT22;137;48.578;9.180;2023-12-04T10:40:54;-0.20;98.20
306;DHT22;137;48.578;9.180;2023-12-04T10:43:22;0.10;98.20
306;DHT22;137;48.578;9.180;2023-12-04T10:45:50;0.20;98.20
306;DHT22;137;48.578;9.180;2023-12-04T10:48:18;0.30;98.20
306;DHT22;137;48.578;9.180;2023-12-04T10:50:46;0.20;98.20
306;DHT22;137;48.578;9.180;2023-12-04T10:53:14;0.20;98.20
306;DHT22;137;48.578;9.180;2023-12-04T10:55:42;0.20;98.20
306;DHT22;137;48.578;9.180;2023-12-04T10:58:12;0.20;98.20
306;DHT22;137;48.578;9.180;2023-12-04T11:00:42;0.50;98.20
306;DHT22;137;48.578;9.180;2023-12-04T11:03:10;0.80;98.20
306;DHT22;137;48.578;9.180;2023-12-04T11:05:40;1.00;98.20
306;DHT22;137;48.578;9.180;2023-12-04T11:08:11;1.10;98.20
306;DHT22;137;48.578;9.180;2023-12-04T11:10:44;1.20;98.20
306;DHT22;137;48.578;9.180;2023-12-04T11:13:16;1.20;98.20
306;DHT22;137;48.578;9.180;2023-12-04T11:15:47;1.20;98.20
306;DHT22;137;48.578;9.180;2023-12-04T11:18:16;1.30;98.20
306;DHT22;137;48.578;9.180;2023-12-04T11:20:54;1.30;98.20
306;DHT22;137;48.578;9.180;2023-12-04T11:23:23;1.20;98.20
306;DHT22;137;48.578;9.180;2023-12-04T11:25:50;1.00;98.20
306;DHT22;137;48.578;9.180;2023-12-04T11:28:19;0.90;98.20
306;DHT22;137;48.578;9.180;2023-12-04T11:30:47;0.80;98.20
306;DHT22;137;48.578;9.180;2023-12-04T11:33:15;0.80;98.20
306;DHT22;137;48.578;9.180;2023-12-04T11:35:42;0.80;98.20
306;DHT22;137;48.578;9.180;2023-12-04T11:38:08;0.90;98.20
306;DHT22;137;48.578;9.180;2023-12-04T11:40:40;1.20;98.20
306;DHT22;137;48.578;9.180;2023-12-04T11:43:24;1.40;98.20
306;DHT22;137;48.578;9.180;2023-12-04T11:45:51;1.20;98.20
306;DHT22;137;48.578;9.180;2023-12-04T11:48:22;1.10;98.20
306;DHT22;137;48.578;9.180;2023-12-04T11:50:50;1.10;98.20
306;DHT22;137;48.578;9.180;2023-12-04T11:53:17;1.00;98.20
306;DHT22;137;48.578;9.180;2023-12-04T11:55:46;1.10;98.20
306;DHT22;137;48.578;9.180;2023-12-04T11:58:13;1.20;98.20
306;DHT22;137;48.578;9.180;2023-12-04T12:00:42;1.30;98.20
306;DHT22;137;48.578;9.180;2023-12-04T12:03:14;1.30;98.20
306;DHT22;137;48.578;9.180;2023-12-04T12:05:41;1.50;98.20
306;DHT22;137;48.578;9.180;2023-12-04T12:08:08;1.70;98.20
306;DHT22;137;48.578;9.180;2023-12-04T12:10:36;1.90;98.20
306;DHT22;137;48.578;9.180;2023-12-04T12:13:03;1.90;98.20
306;DHT22;137;48.578;9.180;2023-12-04T12:15:32;2.10;98.20
306;DHT22;137;48.578;9.180;2023-12-04T12:18:00;2.30;98.20
306;DHT22;137;48.578;9.180;2023-12-04T12:20:27;2.40;98.20
306;DHT22;137;48.578;9.180;2023-12-04T12:22:54;2.50;98.20
306;DHT22;137;48.578;9.180;2023-12-04T12:25:21;2.50;98.20
306;DHT22;137;48.578;9.180;2023-12-04T12:27:48;2.60;98.20
306;DHT22;137;48.578;9.180;2023-12-04T12:30:15;2.60;98.20
306;DHT22;137;48.578;9.180;2023-12-04T12:32:41;2.60;98.20
306;DHT22;137;48.578;9.180;2023-12-04T12:35:10;2.40;98.20
306;DHT22;137;48.578;9.180;2023-12-04T12:37:38;2.40;98.20
306;DHT22;137;48.578;9.180;2023-12-04T12:40:06;2.30;98.20
306;DHT22;137;48.578;9.180;2023-12-04T12:42:35;2.30;98.20
306;DHT22;137;48.578;9.180;2023-12-04T12:45:03;2.40;98.20
306;DHT22;137;48.578;9.180;2023-12-04T12:47:30;2.50;98.20
306;DHT22;137;48.578;9.180;2023-12-04T12:49:57;2.40;98.20
306;DHT22;137;48.578;9.180;2023-12-04T12:52:26;2.10;98.20
306;DHT22;137;48.578;9.180;2023-12-04T12:54:52;2.10;98.20
306;DHT22;137;48.578;9.180;2023-12-04T12:57:19;2.10;98.20
306;DHT22;137;48.578;9.180;2023-12-04T12:59:46;2.10;98.20
306;DHT22;137;48.578;9.180;2023-12-04T13:02:14;2.10;98.20
306;DHT22;137;48.578;9.180;2023-12-04T13:04:42;2.20;98.20
306;DHT22;137;48.578;9.180;2023-12-04T13:07:09;2.20;98.20
306;DHT22;137;48.578;9.180;2023-12-04T13:09:38;2.20;98.20
306;DHT22;137;48.578;9.180;2023-12-04T13:12:06;2.20;98.20
306;DHT22;137;48.578;9.180;2023-12-04T13:14:34;2.20;98.20
306;DHT22;137;48.578;9.180;2023-12-04T13:17:01;2.20;98.20
306;DHT22;137;48.578;9.180;2023-12-04T13:19:28;2.20;98.20
306;DHT22;137;48.578;9.180;2023-12-04T13:21:57;2.10;98.20
306;DHT22;137;48.578;9.180;2023-12-04T13:24:24;1.90;98.20
306;DHT22;137;48.578;9.180;2023-12-04T13:26:52;1.90;98.20
306;DHT22;137;48.578;9.180;2023-12-04T13:29:19;1.90;98.20
306;DHT22;137;48.578;9.180;2023-12-04T13:31:45;1.70;98.20
306;DHT22;137;48.578;9.180;2023-12-04T13:34:15;1.70;98.20
306;DHT22;137;48.578;9.180;2023-12-04T13:36:42;1.50;98.20
306;DHT22;137;48.578;9.180;2023-12-04T13:39:09;1.40;98.20
306;DHT22;137;48.578;9.180;2023-12-04T13:41:43;1.50;98.20
306;DHT22;137;48.578;9.180;2023-12-04T13:44:29;1.50;98.20
306;DHT22;137;48.578;9.180;2023-12-04T13:46:56;1.40;98.20
306;DHT22;137;48.578;9.180;2023-12-04T13:49:23;1.30;98.20
306;DHT22;137;48.578;9.180;2023-12-04T13:51:49;1.10;98.20
306;DHT22;137;48.578;9.180;2023-12-04T13:54:16;1.00;98.20
306;DHT22;137;48.578;9.180;2023-12-04T13:56:47;1.10;98.20
306;DHT22;137;48.578;9.180;2023-12-04T13:59:19;1.10;98.20
306;DHT22;137;48.578;9.180;2023-12-04T14:01:48;1.10;98.20
306;DHT22;137;48.578;9.180;2023-12-04T14:04:16;1.20;98.20
306;DHT22;137;48.578;9.180;2023-12-04T14:06:43;1.10;98.20
306;DHT22;137;48.578;9.180;2023-12-04T14:09:11;1.10;98.20
306;DHT22;137;48.578;9.180;2023-12-04T14:11:41;1.00;98.20
306;DHT22;137;48.578;9.180;2023-12-04T14:14:08;1.00;98.20
306;DHT22;137;48.578;9.180;2023-12-04T14:16:35;1.10;98.20
306;DHT22;137;48.578;9.180;2023-12-04T14:19:03;1.10;98.20
306;DHT22;137;48.578;9.180;2023-12-04T14:21:30;1.00;98.20
306;DHT22;137;48.578;9.180;2023-12-04T14:23:57;0.90;98.20
306;DHT22;137;48.578;9.180;2023-12-04T14:26:23;0.90;98.20
306;DHT22;137;48.578;9.180;2023-12-04T14:28:50;0.90;98.20
306;DHT22;137;48.578;9.180;2023-12-04T14:31:17;0.80;98.20
306;DHT22;137;48.578;9.180;2023-12-04T14:33:44;0.70;98.20
306;DHT22;137;48.578;9.180;2023-12-04T14:36:13;0.60;98.20
306;DHT22;137;48.578;9.180;2023-12-04T14:38:40;0.60;98.20
306;DHT22;137;48.578;9.180;2023-12-04T14:41:07;0.50;98.20
306;DHT22;137;48.578;9.180;2023-12-04T14:43:35;0.50;98.20
306;DHT22;137;48.578;9.180;2023-12-04T14:46:02;0.50;98.20
306;DHT22;137;48.578;9.180;2023-12-04T14:48:29;0.50;98.20
306;DHT22;137;48.578;9.180;2023-12-04T14:50:56;0.40;98.20
306;DHT22;137;48.578;9.180;2023-12-04T14:53:24;0.40;98.20
306;DHT22;137;48.578;9.180;2023-12-04T14:55:56;0.40;98.20
306;DHT22;137;48.578;9.180;2023-12-04T14:58:55;0.40;98.20
306;DHT22;137;48.578;9.180;2023-12-04T15:01:46;0.40;98.20
306;DHT22;137;48.578;9.180;2023-12-04T15:04:31;0.30;98.20
306;DHT22;137;48.578;9.180;2023-12-04T15:07:42;0.30;98.20
306;DHT22;137;48.578;9.180;2023-12-04T15:10:57;0.30;98.20
306;DHT22;137;48.578;9.180;2023-12-04T15:13:53;0.20;98.20
306;DHT22;137;48.578;9.180;2023-12-04T15:16:21;0.30;98.20
306;DHT22;137;48.578;9.180;2023-12-04T15:18:58;0.30;98.20
306;DHT22;137;48.578;9.180;2023-12-04T15:21:58;0.30;98.20
306;DHT22;137;48.578;9.180;2023-12-04T15:24:25;0.40;98.20
306;DHT22;137;48.578;9.180;2023-12-04T15:26:52;0.40;98.20
306;DHT22;137;48.578;9.180;2023-12-04T15:29:21;0.40;98.20
306;DHT22;137;48.578;9.180;2023-12-04T15:31:48;0.40;98.20
306;DHT22;137;48.578;9.180;2023-12-04T15:34:15;0.40;98.20
306;DHT22;137;48.578;9.180;2023-12-04T15:36:40;0.40;98.20
306;DHT22;137;48.578;9.180;2023-12-04T15:39:07;0.40;98.20
306;DHT22;137;48.578;9.180;2023-12-04T15:41:38;0.40;98.20
306;DHT22;137;48.578;9.180;2023-12-04T15:44:08;0.40;98.20
306;DHT22;137;48.578;9.180;2023-12-04T15:46:34;0.40;98.20
306;DHT22;137;48.578;9.180;2023-12-04T15:49:00;0.30;98.20
306;DHT22;137;48.578;9.180;2023-12-04T15:51:26;0.30;98.20
306;DHT22;137;48.578;9.180;2023-12-04T15:53:53;0.40;98.20
306;DHT22;137;48.578;9.180;2023-12-04T15:56:19;0.30;98.20
306;DHT22;137;48.578;9.180;2023-12-04T15:58:47;0.30;98.20
306;DHT22;137;48.578;9.180;2023-12-04T16:01:14;0.30;98.20
306;DHT22;137;48.578;9.180;2023-12-04T16:03:41;0.30;98.20
306;DHT22;137;48.578;9.180;2023-12-04T16:06:08;0.30;98.20
306;DHT22;137;48.578;9.180;2023-12-04T16:08:36;0.30;98.20
306;DHT22;137;48.578;9.180;2023-12-04T16:11:03;0.30;98.20
306;DHT22;137;48.578;9.180;2023-12-04T16:13:30;0.20;98.20
306;DHT22;137;48.578;9.180;2023-12-04T16:15:57;0.10;98.20
306;DHT22;137;48.578;9.180;2023-12-04T16:18:25;0.20;98.20
306;DHT22;137;48.578;9.180;2023-12-04T16:20:51;0.20;98.20
306;DHT22;137;48.578;9.180;2023-12-04T16:23:18;0.20;98.20
306;DHT22;137;48.578;9.180;2023-12-04T16:25:45;0.20;98.20
306;DHT22;137;48.578;9.180;2023-12-04T16:28:12;0.30;98.20
306;DHT22;137;48.578;9.180;2023-12-04T16:30:40;0.30;98.20
306;DHT22;137;48.578;9.180;2023-12-04T16:33:08;0.30;98.20
306;DHT22;137;48.578;9.180;2023-12-04T16:35:36;0.30;98.20
306;DHT22;137;48.578;9.180;2023-12-04T16:38:03;0.30;98.20
306;DHT22;137;48.578;9.180;2023-12-04T16:42:56;0.40;98.20
306;DHT22;137;48.578;9.180;2023-12-04T16:45:23;0.40;98.20
306;DHT22;137;48.578;9.180;2023-12-04T16:47:50;0.40;98.20
306;DHT22;137;48.578;9.180;2023-12-04T16:50:17;0.40;98.20
306;DHT22;137;48.578;9.180;2023-12-04T16:52:45;0.50;98.20
306;DHT22;137;48.578;9.180;2023-12-04T16:55:12;0.40;98.20